createdAt,value
2018-09-02T00:00:11.022Z,4.07
2018-09-02T00:02:39.102Z,4.30
2018-09-02T00:05:07.188Z,4.60
2018-09-02T00:07:35.298Z,4.97
2018-09-02T00:10:03.383Z,4.40
2018-09-02T00:12:31.448Z,3.90
2018-09-02T00:14:59.536Z,4.33
2018-09-02T00:17:27.803Z,3.77
2018-09-02T00:19:55.864Z,3.73
2018-09-02T00:22:24.101Z,3.43
2018-09-02T00:24:52.148Z,3.73
2018-09-02T00:27:20.226Z,3.70
2018-09-02T00:29:48.304Z,3.40
2018-09-02T00:32:16.362Z,3.90
2018-09-02T00:34:44.484Z,3.53
2018-09-02T00:37:12.554Z,3.90
2018-09-02T00:39:40.623Z,3.70
2018-09-02T00:42:08.688Z,3.60
2018-09-02T00:44:36.769Z,3.90
2018-09-02T00:47:04.888Z,3.50
2018-09-02T00:49:32.960Z,3.40
2018-09-02T00:52:01.002Z,3.63
2018-09-02T00:54:29.057Z,4.00
2018-09-02T00:56:57.149Z,3.57
2018-09-02T00:59:25.215Z,3.63
2018-09-02T01:01:53.292Z,3.90
2018-09-02T01:04:21.481Z,3.90
2018-09-02T01:06:49.580Z,4.10
2018-09-02T01:09:17.617Z,3.83
2018-09-02T01:11:45.675Z,4.00
2018-09-02T01:14:13.739Z,3.73
2018-09-02T01:16:41.818Z,3.13
2018-09-02T01:19:09.858Z,3.90
2018-09-02T01:21:37.928Z,4.53
2018-09-02T01:24:05.989Z,3.80
2018-09-02T01:26:34.274Z,3.90
2018-09-02T01:29:02.322Z,3.93
2018-09-02T01:31:30.400Z,4.03
2018-09-02T01:33:58.470Z,4.00
2018-09-02T01:36:26.566Z,3.97
2018-09-02T01:38:54.631Z,4.00
2018-09-02T01:41:22.886Z,4.00
2018-09-02T01:43:50.928Z,4.37
2018-09-02T01:46:19.161Z,3.80
2018-09-02T01:48:47.209Z,4.43
2018-09-02T01:51:15.274Z,4.20
2018-09-02T01:53:43.340Z,4.17
2018-09-02T01:56:11.425Z,4.63
2018-09-02T01:58:39.647Z,4.17
2018-09-02T02:01:07.758Z,4.93
2018-09-02T02:03:36.067Z,4.83
2018-09-02T02:06:04.119Z,4.93
2018-09-02T02:08:32.191Z,4.77
2018-09-02T02:11:00.249Z,4.70
2018-09-02T02:13:28.355Z,4.73
2018-09-02T02:15:56.408Z,4.73
2018-09-02T02:18:24.480Z,4.60
2018-09-02T02:20:52.513Z,5.20
2018-09-02T02:23:20.563Z,4.57
2018-09-02T02:25:48.597Z,4.97
2018-09-02T02:28:16.671Z,5.30
2018-09-02T02:30:44.723Z,4.97
2018-09-02T02:33:12.819Z,5.23
2018-09-02T02:35:40.848Z,5.20
2018-09-02T02:38:08.918Z,5.33
2018-09-02T02:40:37.067Z,5.40
2018-09-02T02:43:05.325Z,5.10
2018-09-02T02:45:33.473Z,5.60
2018-09-02T02:48:01.568Z,5.50
2018-09-02T02:50:29.682Z,5.47
2018-09-02T02:53:03.499Z,5.47
2018-09-02T02:55:32.323Z,5.20
2018-09-02T02:58:00.886Z,5.73
2018-09-02T03:00:28.989Z,4.90
2018-09-02T03:02:57.232Z,5.30
2018-09-02T03:05:25.282Z,5.57
2018-09-02T03:07:53.379Z,5.90
2018-09-02T03:10:21.475Z,5.67
2018-09-02T03:12:49.527Z,5.53
2018-09-02T03:15:18.263Z,5.60
2018-09-02T03:17:46.482Z,5.90
2018-09-02T03:20:14.794Z,6.13
2018-09-02T03:22:43.071Z,5.83
2018-09-02T03:25:11.436Z,5.93
2018-09-02T03:27:39.546Z,5.87
2018-09-02T03:30:07.637Z,5.43
2018-09-02T03:32:35.723Z,5.97
2018-09-02T03:35:03.942Z,6.60
2018-09-02T03:37:32.032Z,5.93
2018-09-02T03:40:00.224Z,5.97
2018-09-02T03:42:28.288Z,5.60
2018-09-02T03:44:56.377Z,5.67
2018-09-02T03:47:24.460Z,6.03
2018-09-02T03:49:52.566Z,6.37
2018-09-02T03:52:20.652Z,7.07
2018-09-02T03:54:48.916Z,6.43
2018-09-02T03:57:17.056Z,5.63
2018-09-02T03:59:45.109Z,5.93
2018-09-02T04:02:13.166Z,6.43
2018-09-02T04:04:41.266Z,5.90
2018-09-02T04:07:09.336Z,6.30
2018-09-02T04:09:37.439Z,6.13
2018-09-02T04:12:05.801Z,7.07
2018-09-02T04:14:33.869Z,6.23
2018-09-02T04:17:01.930Z,6.17
2018-09-02T04:19:30.044Z,6.57
2018-09-02T04:21:58.147Z,6.80
2018-09-02T04:24:26.252Z,6.40
2018-09-02T04:26:54.309Z,7.00
2018-09-02T04:29:22.394Z,6.60
2018-09-02T04:31:50.471Z,6.97
2018-09-02T04:34:18.546Z,6.80
2018-09-02T04:36:46.619Z,6.20
2018-09-02T04:39:14.735Z,6.43
2018-09-02T04:41:42.843Z,6.60
2018-09-02T04:44:10.920Z,7.30
2018-09-02T04:46:39.013Z,7.10
2018-09-02T04:49:07.120Z,6.60
2018-09-02T04:51:35.186Z,6.33
2018-09-02T04:54:03.286Z,6.90
2018-09-02T04:56:31.347Z,6.67
2018-09-02T04:58:59.406Z,6.93
2018-09-02T05:01:27.557Z,6.97
2018-09-02T05:03:55.632Z,6.40
2018-09-02T05:06:23.702Z,7.53
2018-09-02T05:08:51.892Z,7.07
2018-09-02T05:11:20.030Z,7.87
2018-09-02T05:13:48.140Z,7.47
2018-09-02T05:16:16.233Z,7.67
2018-09-02T05:18:44.316Z,8.00
2018-09-02T05:21:12.388Z,8.10
2018-09-02T05:23:40.510Z,8.13
2018-09-02T05:26:08.603Z,7.90
2018-09-02T05:28:36.711Z,7.53
2018-09-02T05:31:04.978Z,7.83
2018-09-02T05:33:33.154Z,7.83
2018-09-02T05:36:01.274Z,8.87
2018-09-02T05:38:29.376Z,7.70
2018-09-02T05:40:57.500Z,8.47
2018-09-02T05:43:25.645Z,9.03
2018-09-02T05:45:53.743Z,9.03
2018-09-02T05:48:21.833Z,9.97
2018-09-02T05:50:49.943Z,9.93
2018-09-02T05:53:18.019Z,9.80
2018-09-02T05:55:46.096Z,11.80
2018-09-02T05:58:14.212Z,11.17
2018-09-02T06:00:42.332Z,11.60
2018-09-02T06:03:10.481Z,12.07
2018-09-02T06:05:38.590Z,12.97
2018-09-02T06:08:06.693Z,14.87
2018-09-02T06:10:34.768Z,13.43
2018-09-02T06:13:02.835Z,14.03
2018-09-02T06:15:30.911Z,14.17
2018-09-02T06:17:59.008Z,14.33
2018-09-02T06:20:27.129Z,15.30
2018-09-02T06:22:55.225Z,15.43
2018-09-02T06:25:23.324Z,16.73
2018-09-02T06:27:51.414Z,18.03
2018-09-02T06:30:19.487Z,18.07
2018-09-02T06:32:47.602Z,18.30
2018-09-02T06:35:15.634Z,16.97
2018-09-02T06:37:43.683Z,17.87
2018-09-02T06:40:11.778Z,16.63
2018-09-02T06:42:39.907Z,17.23
2018-09-02T06:45:08.032Z,17.80
2018-09-02T06:47:36.092Z,17.83
2018-09-02T06:50:04.159Z,17.47
2018-09-02T06:52:32.247Z,16.90
2018-09-02T06:55:00.398Z,16.57
2018-09-02T06:57:28.510Z,15.87
2018-09-02T06:59:56.602Z,16.13
2018-09-02T07:02:24.712Z,15.17
2018-09-02T07:04:52.819Z,14.63
2018-09-02T07:07:20.952Z,15.43
2018-09-02T07:09:49.032Z,15.83
2018-09-02T07:12:17.199Z,16.33
2018-09-02T07:14:45.347Z,15.90
2018-09-02T07:17:13.430Z,15.57
2018-09-02T07:19:41.515Z,16.70
2018-09-02T07:22:09.588Z,17.30
2018-09-02T07:24:37.664Z,16.03
2018-09-02T07:27:06.173Z,17.80
2018-09-02T07:29:34.299Z,18.20
2018-09-02T07:32:02.534Z,19.77
2018-09-02T07:34:30.688Z,19.57
2018-09-02T07:36:58.763Z,18.83
2018-09-02T07:39:26.920Z,19.97
2018-09-02T07:41:55.020Z,21.03
2018-09-02T07:44:23.074Z,19.60
2018-09-02T07:46:51.219Z,18.13
2018-09-02T07:49:19.297Z,18.43
2018-09-02T07:51:47.405Z,19.47
2018-09-02T07:54:15.502Z,17.43
2018-09-02T07:56:43.638Z,17.60
2018-09-02T07:59:11.755Z,16.50
2018-09-02T08:01:39.907Z,16.30
2018-09-02T08:04:08.164Z,15.77
2018-09-02T08:06:36.239Z,15.47
2018-09-02T08:09:07.021Z,16.47
2018-09-02T08:11:35.095Z,16.00
2018-09-02T08:14:03.139Z,16.03
2018-09-02T08:16:31.277Z,16.40
2018-09-02T08:18:59.398Z,17.87
2018-09-02T08:21:27.522Z,18.23
2018-09-02T08:23:55.637Z,18.40
2018-09-02T08:26:23.734Z,17.97
2018-09-02T08:28:51.877Z,18.60
2018-09-02T08:31:19.914Z,18.80
2018-09-02T08:33:47.959Z,19.80
2018-09-02T08:36:16.059Z,18.63
2018-09-02T08:38:44.142Z,18.23
2018-09-02T08:41:12.314Z,17.47
2018-09-02T08:43:40.428Z,18.97
2018-09-02T08:46:08.512Z,16.83
2018-09-02T08:48:36.589Z,18.00
2018-09-02T08:51:04.982Z,16.10
2018-09-02T08:53:33.065Z,16.73
2018-09-02T08:56:01.196Z,16.13
2018-09-02T08:58:29.216Z,15.20
2018-09-02T09:00:57.320Z,15.47
2018-09-02T09:03:25.390Z,14.20
2018-09-02T09:05:53.577Z,14.33
2018-09-02T09:08:21.763Z,14.03
2018-09-02T09:10:49.837Z,12.67
2018-09-02T09:13:17.916Z,12.97
2018-09-02T09:15:46.044Z,12.43
2018-09-02T09:18:14.146Z,11.10
2018-09-02T09:20:42.230Z,10.67
2018-09-02T09:23:10.311Z,10.37
2018-09-02T09:25:38.373Z,10.17
2018-09-02T09:28:06.463Z,9.77
2018-09-02T09:30:34.618Z,9.67
2018-09-02T09:33:02.687Z,8.97
2018-09-02T09:35:30.772Z,9.47
2018-09-02T09:37:59.050Z,8.63
2018-09-02T09:40:27.161Z,7.80
2018-09-02T09:42:55.221Z,7.30
2018-09-02T09:45:23.329Z,7.50
2018-09-02T09:47:51.396Z,7.13
2018-09-02T09:50:19.468Z,6.60
2018-09-02T09:52:47.563Z,6.40
2018-09-02T09:55:15.604Z,6.53
2018-09-02T09:57:43.743Z,8.37
2018-09-02T10:00:11.790Z,6.23
2018-09-02T10:02:39.861Z,6.00
2018-09-02T10:05:07.946Z,5.80
2018-09-02T10:07:36.021Z,5.83
2018-09-02T10:12:38.535Z,5.70
2018-09-02T10:15:06.663Z,6.87
2018-09-02T10:17:34.741Z,5.97
2018-09-02T10:20:02.785Z,6.60
2018-09-02T10:22:30.862Z,6.73
2018-09-02T10:24:58.929Z,6.03
2018-09-02T10:27:27.085Z,6.07
2018-09-02T10:29:55.213Z,5.87
2018-09-02T10:32:23.246Z,5.70
2018-09-02T10:34:51.319Z,5.90
2018-09-02T10:37:19.415Z,6.60
2018-09-02T10:39:47.545Z,6.63
2018-09-02T10:42:15.629Z,6.53
2018-09-02T10:44:43.680Z,6.00
2018-09-02T10:47:11.790Z,5.53
2018-09-02T10:49:39.920Z,5.83
2018-09-02T10:52:08.066Z,5.90
2018-09-02T10:54:36.132Z,5.17
2018-09-02T10:57:04.226Z,5.53
2018-09-02T10:59:32.330Z,5.13
2018-09-02T11:02:00.374Z,5.10
2018-09-02T11:04:28.447Z,4.83
2018-09-02T11:06:56.799Z,4.50
2018-09-02T11:09:24.903Z,4.80
2018-09-02T11:11:52.943Z,4.27
2018-09-02T11:14:21.015Z,4.53
2018-09-02T11:16:49.075Z,4.30
2018-09-02T11:19:17.186Z,4.30
2018-09-02T11:21:45.250Z,4.03
2018-09-02T11:24:13.404Z,4.27
2018-09-02T11:26:41.448Z,4.30
2018-09-02T11:29:09.542Z,4.97
2018-09-02T11:31:37.661Z,4.10
2018-09-02T11:34:05.769Z,3.70
2018-09-02T11:36:33.788Z,4.07
2018-09-02T11:39:01.859Z,4.30
2018-09-02T11:41:29.932Z,4.37
2018-09-02T11:43:58.002Z,4.03
2018-09-02T11:46:26.084Z,4.07
2018-09-02T11:48:54.123Z,4.23
2018-09-02T11:51:22.184Z,4.03
2018-09-02T11:53:50.292Z,4.33
2018-09-02T11:56:18.333Z,4.67
2018-09-02T11:58:46.452Z,4.70
2018-09-02T12:01:14.506Z,4.70
2018-09-02T12:03:42.618Z,4.23
2018-09-02T12:06:10.694Z,4.27
2018-09-02T12:08:38.767Z,4.37
2018-09-02T12:11:06.862Z,4.10
2018-09-02T12:13:34.959Z,4.37
2018-09-02T12:16:03.060Z,4.10
2018-09-02T12:18:31.203Z,4.30
2018-09-02T12:20:59.250Z,4.57
2018-09-02T12:23:27.349Z,4.60
2018-09-02T12:25:55.453Z,4.40
2018-09-02T12:28:23.556Z,4.67
2018-09-02T12:30:51.637Z,4.43
2018-09-02T12:33:19.769Z,4.33
2018-09-02T12:35:47.855Z,4.93
2018-09-02T12:38:15.920Z,4.40
2018-09-02T12:40:44.026Z,4.37
2018-09-02T12:43:12.067Z,4.63
2018-09-02T12:45:40.169Z,5.00
2018-09-02T12:48:08.260Z,4.63
2018-09-02T12:50:36.349Z,4.50
2018-09-02T12:53:05.414Z,5.00
2018-09-02T12:55:33.699Z,4.60
2018-09-02T12:58:01.867Z,4.30
2018-09-02T13:00:29.950Z,4.40
2018-09-02T13:02:58.151Z,4.00
2018-09-02T13:05:26.754Z,4.20
2018-09-02T13:07:55.082Z,4.40
2018-09-02T13:10:23.143Z,4.30
2018-09-02T13:12:51.346Z,4.30
2018-09-02T13:15:19.914Z,4.53
2018-09-02T13:17:48.043Z,4.70
2018-09-02T13:20:16.190Z,4.93
2018-09-02T13:22:44.287Z,4.67
2018-09-02T13:25:13.244Z,4.83
2018-09-02T13:27:41.321Z,4.80
2018-09-02T13:30:10.305Z,5.10
2018-09-02T13:32:38.788Z,4.90
2018-09-02T13:35:07.181Z,5.33
2018-09-02T13:37:35.445Z,4.67
2018-09-02T13:40:04.344Z,4.87
2018-09-02T13:42:32.780Z,5.33
2018-09-02T13:45:01.528Z,5.00
2018-09-02T13:47:30.466Z,5.00
2018-09-02T13:49:58.596Z,5.30
2018-09-02T13:52:26.650Z,5.67
2018-09-02T13:54:54.746Z,4.57
2018-09-02T13:57:22.802Z,5.90
2018-09-02T13:59:50.883Z,5.77
2018-09-02T14:02:18.919Z,4.80
2018-09-02T14:04:46.975Z,5.20
2018-09-02T14:07:15.043Z,5.17
2018-09-02T14:09:43.156Z,4.83
2018-09-02T14:12:11.222Z,5.77
2018-09-02T14:14:39.317Z,5.20
2018-09-02T14:17:07.436Z,5.20
2018-09-02T14:19:35.576Z,4.70
2018-09-02T14:22:03.637Z,4.87
2018-09-02T14:24:31.759Z,5.40
2018-09-02T14:26:59.850Z,5.10
2018-09-02T14:29:27.988Z,5.20
2018-09-02T14:31:56.082Z,5.40
2018-09-02T14:34:24.326Z,5.67
2018-09-02T14:36:52.439Z,5.67
2018-09-02T14:39:20.555Z,5.57
2018-09-02T14:41:48.643Z,5.20
2018-09-02T14:44:16.693Z,5.13
2018-09-02T14:46:44.876Z,5.70
2018-09-02T14:49:12.930Z,5.77
2018-09-02T14:51:41.006Z,5.77
2018-09-02T14:54:09.088Z,6.00
2018-09-02T14:56:37.409Z,5.30
2018-09-02T14:59:05.629Z,5.83
2018-09-02T15:01:33.704Z,5.60
2018-09-02T15:04:01.785Z,5.30
2018-09-02T15:06:29.871Z,6.20
2018-09-02T15:08:57.918Z,5.23
2018-09-02T15:11:26.003Z,5.50
2018-09-02T15:13:54.079Z,5.63
2018-09-02T15:16:22.135Z,5.23
2018-09-02T15:18:50.279Z,5.27
2018-09-02T15:21:18.428Z,5.87
2018-09-02T15:23:46.411Z,5.90
2018-09-02T15:26:14.494Z,5.83
2018-09-02T15:28:42.617Z,5.70
2018-09-02T15:31:10.727Z,5.37
2018-09-02T15:33:39.798Z,5.60
2018-09-02T15:36:07.883Z,5.17
2018-09-02T15:38:35.942Z,5.33
2018-09-02T15:41:04.247Z,5.57
2018-09-02T15:43:32.300Z,4.90
2018-09-02T15:46:00.357Z,6.00
2018-09-02T15:48:28.419Z,11.33
2018-09-02T15:50:56.469Z,5.70
2018-09-02T15:53:24.509Z,6.07
2018-09-02T15:55:52.571Z,5.83
2018-09-02T15:58:20.634Z,5.90
2018-09-02T16:00:48.716Z,6.00
2018-09-02T16:03:16.769Z,5.47
2018-09-02T16:05:44.861Z,5.20
2018-09-02T16:08:12.979Z,5.97
2018-09-02T16:10:41.052Z,5.90
2018-09-02T16:13:09.129Z,6.10
2018-09-02T16:15:38.196Z,6.13
2018-09-02T16:18:06.271Z,7.80
2018-09-02T16:20:34.364Z,5.80
2018-09-02T16:23:02.431Z,5.77
2018-09-02T16:25:30.471Z,5.60
2018-09-02T16:27:58.574Z,5.70
2018-09-02T16:30:26.672Z,5.90
2018-09-02T16:32:54.786Z,5.63
2018-09-02T16:35:22.865Z,6.10
2018-09-02T16:37:51.000Z,5.93
2018-09-02T16:40:19.090Z,5.67
2018-09-02T16:42:48.337Z,5.63
2018-09-02T16:45:16.717Z,6.37
2018-09-02T16:47:45.007Z,17.50
2018-09-02T16:50:13.076Z,10.87
2018-09-02T16:52:41.164Z,6.97
2018-09-02T16:55:09.206Z,6.60
2018-09-02T16:57:37.316Z,6.57
2018-09-02T17:00:06.433Z,6.40
2018-09-02T17:02:34.478Z,6.50
2018-09-02T17:05:10.087Z,6.80
2018-09-02T17:07:40.217Z,6.53
2018-09-02T17:10:08.258Z,6.70
2018-09-02T17:12:36.476Z,6.37
2018-09-02T17:15:04.371Z,6.57
2018-09-02T17:17:32.447Z,7.10
2018-09-02T17:20:00.660Z,6.63
2018-09-02T17:22:35.621Z,6.53
2018-09-02T17:25:03.700Z,6.67
2018-09-02T17:27:31.784Z,6.47
2018-09-02T17:29:59.869Z,7.30
2018-09-02T17:32:28.122Z,6.97
2018-09-02T17:34:56.195Z,8.17
2018-09-02T17:37:24.284Z,7.30
2018-09-02T17:39:52.353Z,9.17
2018-09-02T17:42:20.428Z,7.03
2018-09-02T17:44:48.508Z,8.30
2018-09-02T17:47:16.585Z,8.10
2018-09-02T17:49:44.688Z,7.73
2018-09-02T17:52:12.811Z,7.40
2018-09-02T17:54:40.880Z,8.23
2018-09-02T17:57:08.939Z,9.07
2018-09-02T17:59:37.064Z,7.90
2018-09-02T18:02:05.403Z,8.33
2018-09-02T18:04:33.504Z,11.33
2018-09-02T18:07:01.619Z,10.90
2018-09-02T18:09:29.712Z,7.43
2018-09-02T18:11:57.803Z,8.03
2018-09-02T18:14:25.958Z,14.30
2018-09-02T18:16:54.030Z,7.63
2018-09-02T18:19:22.079Z,7.93
2018-09-02T18:21:50.203Z,8.20
2018-09-02T18:24:18.244Z,6.93
2018-09-02T18:26:46.350Z,7.17
2018-09-02T18:29:14.443Z,7.53
2018-09-02T18:31:42.610Z,7.80
2018-09-02T18:34:10.709Z,8.10
2018-09-02T18:36:38.786Z,7.47
2018-09-02T18:39:08.965Z,6.80
2018-09-02T18:41:37.095Z,7.63
2018-09-02T18:44:05.353Z,6.90
2018-09-02T18:46:33.547Z,6.63
2018-09-02T18:49:01.663Z,7.07
2018-09-02T18:51:29.770Z,6.67
2018-09-02T18:53:57.851Z,6.83
2018-09-02T18:56:25.999Z,8.10
2018-09-02T18:58:54.119Z,7.20
2018-09-02T19:01:22.190Z,7.77
2018-09-02T19:03:50.275Z,7.67
2018-09-02T19:06:18.377Z,7.23
2018-09-02T19:08:46.481Z,6.83
2018-09-02T19:11:14.638Z,7.10
2018-09-02T19:13:42.712Z,7.03
2018-09-02T19:16:10.823Z,6.83
2018-09-02T19:18:38.896Z,6.93
2018-09-02T19:21:06.975Z,7.20
2018-09-02T19:23:35.162Z,6.97
2018-09-02T19:26:03.184Z,7.20
2018-09-02T19:28:31.267Z,6.80
2018-09-02T19:30:59.361Z,7.57
2018-09-02T19:33:27.469Z,7.07
2018-09-02T19:35:55.566Z,7.10
2018-09-02T19:38:23.711Z,6.73
2018-09-02T19:40:51.829Z,7.40
2018-09-02T19:43:20.035Z,6.57
2018-09-02T19:45:48.114Z,7.63
2018-09-02T19:48:16.254Z,6.60
2018-09-02T19:50:44.741Z,6.70
2018-09-02T19:53:13.170Z,7.27
2018-09-02T19:55:41.240Z,7.27
2018-09-02T19:58:09.368Z,7.27
2018-09-02T20:00:37.455Z,6.83
2018-09-02T20:03:05.754Z,7.20
2018-09-02T20:05:33.877Z,7.57
2018-09-02T20:08:01.995Z,7.60
2018-09-02T20:10:30.063Z,7.30
2018-09-02T20:12:58.130Z,7.63
2018-09-02T20:15:26.254Z,7.67
2018-09-02T20:17:54.298Z,6.87
2018-09-02T20:20:22.390Z,7.37
2018-09-02T20:22:50.459Z,8.43
2018-09-02T20:25:18.552Z,8.20
2018-09-02T20:27:46.736Z,7.53
2018-09-02T20:30:14.822Z,7.63
2018-09-02T20:32:42.892Z,8.03
2018-09-02T20:35:11.112Z,7.37
2018-09-02T20:37:39.155Z,8.20
2018-09-02T20:40:07.475Z,7.33
2018-09-02T20:42:35.766Z,7.47
2018-09-02T20:45:03.838Z,7.20
2018-09-02T20:47:31.910Z,7.70
2018-09-02T20:50:00.086Z,7.20
2018-09-02T20:52:28.165Z,8.20
2018-09-02T20:54:56.267Z,7.77
2018-09-02T20:57:24.361Z,8.00
2018-09-02T20:59:52.444Z,7.63
2018-09-02T21:02:20.620Z,7.20
2018-09-02T21:04:48.665Z,7.60
2018-09-02T21:07:16.782Z,7.67
2018-09-02T21:09:44.900Z,7.63
2018-09-02T21:12:12.946Z,7.13
2018-09-02T21:14:41.010Z,8.33
2018-09-02T21:17:09.121Z,8.73
2018-09-02T21:19:37.200Z,8.27
2018-09-02T21:22:05.272Z,7.53
2018-09-02T21:24:33.346Z,8.07
2018-09-02T21:27:01.584Z,7.50
2018-09-02T21:29:29.666Z,7.70
2018-09-02T21:31:57.724Z,6.97
2018-09-02T21:34:25.806Z,7.10
2018-09-02T21:36:53.904Z,7.30
2018-09-02T21:39:21.941Z,7.10
2018-09-02T21:41:49.998Z,7.77
2018-09-02T21:44:23.902Z,8.33
2018-09-02T21:46:51.976Z,8.20
2018-09-02T21:49:20.048Z,8.33
2018-09-02T21:51:48.138Z,8.07
2018-09-02T21:54:16.207Z,8.47
2018-09-02T21:56:44.285Z,8.47
2018-09-02T21:59:12.350Z,8.80
2018-09-02T22:01:40.418Z,8.30
2018-09-02T22:04:08.492Z,8.50
2018-09-02T22:06:36.543Z,8.03
2018-09-02T22:09:12.100Z,8.40
2018-09-02T22:11:40.147Z,8.27
2018-09-02T22:14:08.294Z,7.97
2018-09-02T22:16:36.482Z,8.50
2018-09-02T22:19:04.726Z,7.93
2018-09-02T22:21:32.813Z,8.00
2018-09-02T22:24:00.921Z,7.50
2018-09-02T22:26:29.058Z,7.83
2018-09-02T22:28:57.113Z,8.60
2018-09-02T22:31:25.253Z,7.90
2018-09-02T22:33:53.328Z,8.00
2018-09-02T22:36:21.417Z,7.50
2018-09-02T22:38:49.555Z,7.10
2018-09-02T22:41:17.700Z,8.00
2018-09-02T22:43:45.982Z,7.77
2018-09-02T22:46:14.469Z,7.73
2018-09-02T22:48:42.538Z,8.23
2018-09-02T22:51:10.726Z,8.53
2018-09-02T22:53:38.986Z,7.63
2018-09-02T22:56:07.095Z,7.70
2018-09-02T22:58:35.151Z,7.83
2018-09-02T23:01:03.285Z,7.50
2018-09-02T23:03:31.326Z,6.83
2018-09-02T23:05:59.388Z,7.60
2018-09-02T23:08:27.462Z,7.97
2018-09-02T23:10:55.534Z,7.57
2018-09-02T23:13:23.598Z,7.00
2018-09-02T23:15:51.662Z,7.03
2018-09-02T23:18:19.729Z,7.03
2018-09-02T23:20:47.826Z,7.07
2018-09-02T23:23:15.886Z,7.23
2018-09-02T23:25:43.959Z,7.40
2018-09-02T23:28:12.117Z,7.03
2018-09-02T23:30:40.197Z,7.47
2018-09-02T23:33:08.460Z,7.33
2018-09-02T23:35:36.545Z,7.90
2018-09-02T23:38:04.743Z,7.37
2018-09-02T23:40:32.782Z,7.53
2018-09-02T23:43:00.856Z,7.10
2018-09-02T23:45:29.037Z,6.83
2018-09-02T23:48:04.070Z,6.60
2018-09-02T23:50:32.142Z,7.53
2018-09-02T23:53:00.204Z,7.27
2018-09-02T23:55:28.277Z,7.50
2018-09-02T23:57:56.406Z,6.93
